sensor_id;sensor_type;location;lat;lon;timestamp;temperature;humidity
12504;DHT22;6316;48.118;-1.690;2022-07-03T00:02:08;16.60;93.70
12504;DHT22;6316;48.118;-1.690;2022-07-03T00:04:34;16.60;93.70
12504;DHT22;6316;48.118;-1.690;2022-07-03T00:06:59;16.60;93.80
12504;DHT22;6316;48.118;-1.690;2022-07-03T00:09:25;16.60;93.80
12504;DHT22;6316;48.118;-1.690;2022-07-03T00:11:51;16.50;93.80
12504;DHT22;6316;48.118;-1.690;2022-07-03T00:14:17;16.50;93.80
12504;DHT22;6316;48.118;-1.690;2022-07-03T00:16:42;16.50;93.80
12504;DHT22;6316;48.118;-1.690;2022-07-03T00:19:08;16.50;93.90
12504;DHT22;6316;48.118;-1.690;2022-07-03T00:21:42;16.40;93.90
12504;DHT22;6316;48.118;-1.690;2022-07-03T00:25:00;16.40;93.90
12504;DHT22;6316;48.118;-1.690;2022-07-03T00:27:03;16.40;93.90
12504;DHT22;6316;48.118;-1.690;2022-07-03T00:29:34;16.40;94.00
12504;DHT22;6316;48.118;-1.690;2022-07-03T00:32:02;16.40;94.00
12504;DHT22;6316;48.118;-1.690;2022-07-03T00:34:29;16.40;94.00
12504;DHT22;6316;48.118;-1.690;2022-07-03T00:36:57;16.40;94.00
12504;DHT22;6316;48.118;-1.690;2022-07-03T00:39:23;16.30;94.00
12504;DHT22;6316;48.118;-1.690;2022-07-03T00:42:02;16.30;94.10
12504;DHT22;6316;48.118;-1.690;2022-07-03T00:44:29;16.30;94.10
12504;DHT22;6316;48.118;-1.690;2022-07-03T00:46:55;16.20;94.10
12504;DHT22;6316;48.118;-1.690;2022-07-03T00:49:23;16.20;94.20
12504;DHT22;6316;48.118;-1.690;2022-07-03T00:51:52;16.20;94.20
12504;DHT22;6316;48.118;-1.690;2022-07-03T00:54:21;16.20;94.20
12504;DHT22;6316;48.118;-1.690;2022-07-03T00:56:51;16.10;94.20
12504;DHT22;6316;48.118;-1.690;2022-07-03T00:59:17;16.10;94.30
12504;DHT22;6316;48.118;-1.690;2022-07-03T01:01:45;16.10;94.30
12504;DHT22;6316;48.118;-1.690;2022-07-03T01:07:06;16.10;94.40
12504;DHT22;6316;48.118;-1.690;2022-07-03T01:10:10;16.00;94.40
12504;DHT22;6316;48.118;-1.690;2022-07-03T01:13:03;16.00;94.40
12504;DHT22;6316;48.118;-1.690;2022-07-03T01:21:09;15.90;94.50
12504;DHT22;6316;48.118;-1.690;2022-07-03T01:26:37;15.90;94.50
12504;DHT22;6316;48.118;-1.690;2022-07-03T01:29:07;15.80;94.50
12504;DHT22;6316;48.118;-1.690;2022-07-03T01:31:35;15.80;94.50
12504;DHT22;6316;48.118;-1.690;2022-07-03T01:34:05;15.80;94.60
12504;DHT22;6316;48.118;-1.690;2022-07-03T01:36:36;15.80;94.60
12504;DHT22;6316;48.118;-1.690;2022-07-03T01:39:04;15.70;94.60
12504;DHT22;6316;48.118;-1.690;2022-07-03T01:41:31;15.70;94.60
12504;DHT22;6316;48.118;-1.690;2022-07-03T01:43:57;15.70;94.60
12504;DHT22;6316;48.118;-1.690;2022-07-03T01:46:29;15.70;94.60
12504;DHT22;6316;48.118;-1.690;2022-07-03T01:48:57;15.70;94.60
12504;DHT22;6316;48.118;-1.690;2022-07-03T01:51:23;15.70;94.60
12504;DHT22;6316;48.118;-1.690;2022-07-03T01:53:51;15.70;94.70
12504;DHT22;6316;48.118;-1.690;2022-07-03T01:56:19;15.70;94.70
12504;DHT22;6316;48.118;-1.690;2022-07-03T01:58:45;15.80;94.70
12504;DHT22;6316;48.118;-1.690;2022-07-03T02:01:33;15.80;94.70
12504;DHT22;6316;48.118;-1.690;2022-07-03T02:04:16;15.80;94.70
12504;DHT22;6316;48.118;-1.690;2022-07-03T02:09:36;15.90;94.80
12504;DHT22;6316;48.118;-1.690;2022-07-03T02:12:09;15.90;94.80
12504;DHT22;6316;48.118;-1.690;2022-07-03T02:14:37;15.90;94.80
12504;DHT22;6316;48.118;-1.690;2022-07-03T02:17:17;15.80;94.70
12504;DHT22;6316;48.118;-1.690;2022-07-03T02:19:53;15.80;94.70
12504;DHT22;6316;48.118;-1.690;2022-07-03T02:22:23;15.80;94.80
12504;DHT22;6316;48.118;-1.690;2022-07-03T02:24:50;15.80;94.80
12504;DHT22;6316;48.118;-1.690;2022-07-03T02:27:21;15.80;94.80
12504;DHT22;6316;48.118;-1.690;2022-07-03T02:29:54;15.80;94.80
12504;DHT22;6316;48.118;-1.690;2022-07-03T02:32:22;15.80;94.80
12504;DHT22;6316;48.118;-1.690;2022-07-03T02:35:02;15.80;94.90
12504;DHT22;6316;48.118;-1.690;2022-07-03T02:37:31;15.80;94.90
12504;DHT22;6316;48.118;-1.690;2022-07-03T02:40:04;15.80;94.90
12504;DHT22;6316;48.118;-1.690;2022-07-03T02:42:42;15.70;94.90
12504;DHT22;6316;48.118;-1.690;2022-07-03T02:45:11;15.70;94.90
12504;DHT22;6316;48.118;-1.690;2022-07-03T02:50:12;15.60;94.90
12504;DHT22;6316;48.118;-1.690;2022-07-03T02:55:44;15.50;95.00
12504;DHT22;6316;48.118;-1.690;2022-07-03T03:01:21;15.40;95.00
12504;DHT22;6316;48.118;-1.690;2022-07-03T03:07:14;15.30;95.10
12504;DHT22;6316;48.118;-1.690;2022-07-03T03:09:44;15.30;95.10
12504;DHT22;6316;48.118;-1.690;2022-07-03T03:12:12;15.20;95.10
12504;DHT22;6316;48.118;-1.690;2022-07-03T03:14:43;15.20;95.10
12504;DHT22;6316;48.118;-1.690;2022-07-03T03:17:18;15.20;95.10
12504;DHT22;6316;48.118;-1.690;2022-07-03T03:19:52;15.20;95.20
12504;DHT22;6316;48.118;-1.690;2022-07-03T03:22:29;15.10;95.20
12504;DHT22;6316;48.118;-1.690;2022-07-03T03:25:01;15.10;95.20
12504;DHT22;6316;48.118;-1.690;2022-07-03T03:27:27;15.10;95.30
12504;DHT22;6316;48.118;-1.690;2022-07-03T03:29:53;15.00;95.20
12504;DHT22;6316;48.118;-1.690;2022-07-03T03:32:20;15.00;95.20
12504;DHT22;6316;48.118;-1.690;2022-07-03T03:34:47;15.00;95.30
12504;DHT22;6316;48.118;-1.690;2022-07-03T03:37:13;15.00;95.30
12504;DHT22;6316;48.118;-1.690;2022-07-03T03:39:38;14.90;95.30
12504;DHT22;6316;48.118;-1.690;2022-07-03T03:42:04;14.90;95.30
12504;DHT22;6316;48.118;-1.690;2022-07-03T03:44:30;14.90;95.30
12504;DHT22;6316;48.118;-1.690;2022-07-03T03:46:56;14.90;95.30
12504;DHT22;6316;48.118;-1.690;2022-07-03T03:49:22;14.80;95.30
12504;DHT22;6316;48.118;-1.690;2022-07-03T03:51:48;14.80;95.40
12504;DHT22;6316;48.118;-1.690;2022-07-03T03:54:14;14.80;95.40
12504;DHT22;6316;48.118;-1.690;2022-07-03T03:56:40;14.80;95.40
12504;DHT22;6316;48.118;-1.690;2022-07-03T03:59:05;14.70;95.40
12504;DHT22;6316;48.118;-1.690;2022-07-03T04:01:31;14.70;95.40
12504;DHT22;6316;48.118;-1.690;2022-07-03T04:03:57;14.70;95.40
12504;DHT22;6316;48.118;-1.690;2022-07-03T04:06:25;14.70;95.40
12504;DHT22;6316;48.118;-1.690;2022-07-03T04:08:50;14.60;95.50
12504;DHT22;6316;48.118;-1.690;2022-07-03T04:11:16;14.60;95.50
12504;DHT22;6316;48.118;-1.690;2022-07-03T04:13:42;14.60;95.50
12504;DHT22;6316;48.118;-1.690;2022-07-03T04:16:07;14.60;95.50
12504;DHT22;6316;48.118;-1.690;2022-07-03T04:18:33;14.50;95.50
12504;DHT22;6316;48.118;-1.690;2022-07-03T04:20:59;14.50;95.50
12504;DHT22;6316;48.118;-1.690;2022-07-03T04:23:25;14.50;95.50
12504;DHT22;6316;48.118;-1.690;2022-07-03T04:25:51;14.50;95.60
12504;DHT22;6316;48.118;-1.690;2022-07-03T04:28:16;14.50;95.60
12504;DHT22;6316;48.118;-1.690;2022-07-03T04:30:42;14.50;95.60
12504;DHT22;6316;48.118;-1.690;2022-07-03T04:33:08;14.40;95.60
12504;DHT22;6316;48.118;-1.690;2022-07-03T04:35:33;14.40;95.60
12504;DHT22;6316;48.118;-1.690;2022-07-03T04:37:59;14.40;95.60
12504;DHT22;6316;48.118;-1.690;2022-07-03T04:40:24;14.40;95.70
12504;DHT22;6316;48.118;-1.690;2022-07-03T04:42:50;14.40;95.70
12504;DHT22;6316;48.118;-1.690;2022-07-03T04:45:16;14.40;95.70
12504;DHT22;6316;48.118;-1.690;2022-07-03T04:47:41;14.40;95.70
12504;DHT22;6316;48.118;-1.690;2022-07-03T04:50:07;14.40;95.70
12504;DHT22;6316;48.118;-1.690;2022-07-03T04:52:33;14.40;95.70
12504;DHT22;6316;48.118;-1.690;2022-07-03T04:54:59;14.40;95.80
12504;DHT22;6316;48.118;-1.690;2022-07-03T04:57:24;14.40;95.80
12504;DHT22;6316;48.118;-1.690;2022-07-03T04:59:50;14.40;95.80
12504;DHT22;6316;48.118;-1.690;2022-07-03T05:02:16;14.50;95.80
12504;DHT22;6316;48.118;-1.690;2022-07-03T05:04:41;14.50;95.80
12504;DHT22;6316;48.118;-1.690;2022-07-03T05:07:07;14.50;95.80
12504;DHT22;6316;48.118;-1.690;2022-07-03T05:09:33;14.50;95.80
12504;DHT22;6316;48.118;-1.690;2022-07-03T05:11:58;14.50;95.90
12504;DHT22;6316;48.118;-1.690;2022-07-03T05:14:24;14.50;95.90
12504;DHT22;6316;48.118;-1.690;2022-07-03T05:16:49;14.50;95.90
12504;DHT22;6316;48.118;-1.690;2022-07-03T05:19:15;14.50;95.90
12504;DHT22;6316;48.118;-1.690;2022-07-03T05:21:41;14.50;95.90
12504;DHT22;6316;48.118;-1.690;2022-07-03T05:24:07;14.50;95.90
12504;DHT22;6316;48.118;-1.690;2022-07-03T05:26:32;14.60;96.00
12504;DHT22;6316;48.118;-1.690;2022-07-03T05:28:58;14.60;96.00
12504;DHT22;6316;48.118;-1.690;2022-07-03T05:31:24;14.60;96.00
12504;DHT22;6316;48.118;-1.690;2022-07-03T05:33:49;14.60;96.00
12504;DHT22;6316;48.118;-1.690;2022-07-03T05:36:15;14.70;96.00
12504;DHT22;6316;48.118;-1.690;2022-07-03T05:38:41;14.70;96.00
12504;DHT22;6316;48.118;-1.690;2022-07-03T05:41:25;14.70;96.00
12504;DHT22;6316;48.118;-1.690;2022-07-03T05:43:51;14.80;96.10
12504;DHT22;6316;48.118;-1.690;2022-07-03T05:46:16;14.80;96.10
12504;DHT22;6316;48.118;-1.690;2022-07-03T05:48:42;14.80;96.10
12504;DHT22;6316;48.118;-1.690;2022-07-03T05:51:08;14.80;96.10
12504;DHT22;6316;48.118;-1.690;2022-07-03T05:53:34;14.90;96.10
12504;DHT22;6316;48.118;-1.690;2022-07-03T05:56:00;14.90;96.10
12504;DHT22;6316;48.118;-1.690;2022-07-03T05:58:25;15.00;96.10
12504;DHT22;6316;48.118;-1.690;2022-07-03T06:00:51;15.00;96.10
12504;DHT22;6316;48.118;-1.690;2022-07-03T06:03:17;15.00;96.10
12504;DHT22;6316;48.118;-1.690;2022-07-03T06:05:42;15.10;96.20
12504;DHT22;6316;48.118;-1.690;2022-07-03T06:08:08;15.10;96.20
12504;DHT22;6316;48.118;-1.690;2022-07-03T06:10:34;15.10;96.20
12504;DHT22;6316;48.118;-1.690;2022-07-03T06:12:59;15.20;96.20
12504;DHT22;6316;48.118;-1.690;2022-07-03T06:15:25;15.20;96.20
12504;DHT22;6316;48.118;-1.690;2022-07-03T06:17:51;15.20;96.20
12504;DHT22;6316;48.118;-1.690;2022-07-03T06:20:17;15.30;96.20
12504;DHT22;6316;48.118;-1.690;2022-07-03T06:22:43;15.30;96.20
12504;DHT22;6316;48.118;-1.690;2022-07-03T06:25:09;15.40;96.20
12504;DHT22;6316;48.118;-1.690;2022-07-03T06:27:35;15.40;96.20
12504;DHT22;6316;48.118;-1.690;2022-07-03T06:30:01;15.40;96.20
12504;DHT22;6316;48.118;-1.690;2022-07-03T06:32:27;15.50;96.20
12504;DHT22;6316;48.118;-1.690;2022-07-03T06:34:52;15.50;96.20
12504;DHT22;6316;48.118;-1.690;2022-07-03T06:37:18;15.50;96.30
12504;DHT22;6316;48.118;-1.690;2022-07-03T06:39:44;15.60;96.30
12504;DHT22;6316;48.118;-1.690;2022-07-03T06:42:10;15.70;96.30
12504;DHT22;6316;48.118;-1.690;2022-07-03T06:44:36;16.10;96.60
12504;DHT22;6316;48.118;-1.690;2022-07-03T06:47:01;17.10;96.90
12504;DHT22;6316;48.118;-1.690;2022-07-03T06:49:29;18.70;96.60
12504;DHT22;6316;48.118;-1.690;2022-07-03T06:51:55;20.60;96.00
12504;DHT22;6316;48.118;-1.690;2022-07-03T06:54:20;22.40;94.50
12504;DHT22;6316;48.118;-1.690;2022-07-03T06:56:46;24.10;93.30
12504;DHT22;6316;48.118;-1.690;2022-07-03T06:59:12;25.80;92.20
12504;DHT22;6316;48.118;-1.690;2022-07-03T07:01:37;27.00;91.40
12504;DHT22;6316;48.118;-1.690;2022-07-03T07:04:03;27.80;90.90
12504;DHT22;6316;48.118;-1.690;2022-07-03T07:06:29;28.60;90.50
12504;DHT22;6316;48.118;-1.690;2022-07-03T07:08:55;29.30;90.20
12504;DHT22;6316;48.118;-1.690;2022-07-03T07:11:20;29.80;90.00
12504;DHT22;6316;48.118;-1.690;2022-07-03T07:13:46;30.20;89.70
12504;DHT22;6316;48.118;-1.690;2022-07-03T07:16:12;30.70;89.50
12504;DHT22;6316;48.118;-1.690;2022-07-03T07:18:40;31.50;89.10
12504;DHT22;6316;48.118;-1.690;2022-07-03T07:21:06;32.30;88.40
12504;DHT22;6316;48.118;-1.690;2022-07-03T07:23:31;33.00;87.60
12504;DHT22;6316;48.118;-1.690;2022-07-03T07:25:57;33.40;87.00
12504;DHT22;6316;48.118;-1.690;2022-07-03T07:28:23;33.50;87.00
12504;DHT22;6316;48.118;-1.690;2022-07-03T07:30:49;33.60;86.90
12504;DHT22;6316;48.118;-1.690;2022-07-03T07:33:14;33.40;87.20
12504;DHT22;6316;48.118;-1.690;2022-07-03T07:35:40;33.70;87.30
12504;DHT22;6316;48.118;-1.690;2022-07-03T07:38:06;34.30;86.90
12504;DHT22;6316;48.118;-1.690;2022-07-03T07:40:31;34.90;86.30
12504;DHT22;6316;48.118;-1.690;2022-07-03T07:42:57;35.00;85.70
12504;DHT22;6316;48.118;-1.690;2022-07-03T07:45:23;34.60;86.10
12504;DHT22;6316;48.118;-1.690;2022-07-03T07:47:48;34.20;86.90
12504;DHT22;6316;48.118;-1.690;2022-07-03T07:50:14;34.20;87.30
12504;DHT22;6316;48.118;-1.690;2022-07-03T07:52:40;34.50;87.00
12504;DHT22;6316;48.118;-1.690;2022-07-03T07:55:06;35.00;86.70
12504;DHT22;6316;48.118;-1.690;2022-07-03T07:57:36;35.60;86.00
12504;DHT22;6316;48.118;-1.690;2022-07-03T08:00:07;36.10;85.40
12504;DHT22;6316;48.118;-1.690;2022-07-03T08:02:33;36.60;84.70
12504;DHT22;6316;48.118;-1.690;2022-07-03T08:05:17;37.00;84.40
12504;DHT22;6316;48.118;-1.690;2022-07-03T08:08:10;37.20;84.00
12504;DHT22;6316;48.118;-1.690;2022-07-03T08:10:42;37.40;83.80
12504;DHT22;6316;48.118;-1.690;2022-07-03T08:13:08;37.60;83.70
12504;DHT22;6316;48.118;-1.690;2022-07-03T08:15:34;37.70;83.60
12504;DHT22;6316;48.118;-1.690;2022-07-03T08:18:01;37.90;83.40
12504;DHT22;6316;48.118;-1.690;2022-07-03T08:20:27;38.10;83.20
12504;DHT22;6316;48.118;-1.690;2022-07-03T08:22:53;38.30;83.60
12504;DHT22;6316;48.118;-1.690;2022-07-03T08:25:19;38.20;83.00
12504;DHT22;6316;48.118;-1.690;2022-07-03T08:27:44;38.00;83.00
12504;DHT22;6316;48.118;-1.690;2022-07-03T08:30:11;38.10;83.20
12504;DHT22;6316;48.118;-1.690;2022-07-03T08:32:36;38.40;82.90
12504;DHT22;6316;48.118;-1.690;2022-07-03T08:35:02;38.80;82.50
12504;DHT22;6316;48.118;-1.690;2022-07-03T08:37:28;38.90;82.10
12504;DHT22;6316;48.118;-1.690;2022-07-03T08:39:54;38.30;82.00
12504;DHT22;6316;48.118;-1.690;2022-07-03T08:42:22;37.40;83.00
12504;DHT22;6316;48.118;-1.690;2022-07-03T08:44:49;36.50;83.70
12504;DHT22;6316;48.118;-1.690;2022-07-03T08:47:17;35.60;84.30
12504;DHT22;6316;48.118;-1.690;2022-07-03T08:49:44;34.30;85.00
12504;DHT22;6316;48.118;-1.690;2022-07-03T08:52:11;33.10;85.90
12504;DHT22;6316;48.118;-1.690;2022-07-03T08:54:37;31.90;86.70
12504;DHT22;6316;48.118;-1.690;2022-07-03T08:57:03;30.90;87.40
12504;DHT22;6316;48.118;-1.690;2022-07-03T08:59:36;30.10;88.20
12504;DHT22;6316;48.118;-1.690;2022-07-03T09:02:05;29.50;88.90
12504;DHT22;6316;48.118;-1.690;2022-07-03T09:04:32;29.50;90.00
12504;DHT22;6316;48.118;-1.690;2022-07-03T09:06:59;30.20;90.00
12504;DHT22;6316;48.118;-1.690;2022-07-03T09:09:25;31.20;89.10
12504;DHT22;6316;48.118;-1.690;2022-07-03T09:11:51;32.30;87.70
12504;DHT22;6316;48.118;-1.690;2022-07-03T09:14:17;33.30;86.40
12504;DHT22;6316;48.118;-1.690;2022-07-03T09:16:43;34.00;85.00
12504;DHT22;6316;48.118;-1.690;2022-07-03T09:19:09;33.60;84.20
12504;DHT22;6316;48.118;-1.690;2022-07-03T09:21:40;32.60;84.50
12504;DHT22;6316;48.118;-1.690;2022-07-03T09:24:10;31.70;85.20
12504;DHT22;6316;48.118;-1.690;2022-07-03T09:26:36;30.80;85.80
12504;DHT22;6316;48.118;-1.690;2022-07-03T09:29:14;30.30;86.70
12504;DHT22;6316;48.118;-1.690;2022-07-03T09:31:40;29.90;86.90
12504;DHT22;6316;48.118;-1.690;2022-07-03T09:34:06;29.50;87.10
12504;DHT22;6316;48.118;-1.690;2022-07-03T09:36:47;29.20;87.30
12504;DHT22;6316;48.118;-1.690;2022-07-03T09:39:16;29.00;87.60
12504;DHT22;6316;48.118;-1.690;2022-07-03T09:42:04;29.20;87.30
12504;DHT22;6316;48.118;-1.690;2022-07-03T09:47:23;29.00;86.30
12504;DHT22;6316;48.118;-1.690;2022-07-03T09:55:00;27.60;86.80
12504;DHT22;6316;48.118;-1.690;2022-07-03T09:57:28;27.20;86.90
12504;DHT22;6316;48.118;-1.690;2022-07-03T10:00:13;26.90;87.20
12504;DHT22;6316;48.118;-1.690;2022-07-03T10:03:06;26.70;87.40
12504;DHT22;6316;48.118;-1.690;2022-07-03T10:05:33;26.50;87.50
12504;DHT22;6316;48.118;-1.690;2022-07-03T10:08:06;26.30;87.60
12504;DHT22;6316;48.118;-1.690;2022-07-03T10:10:35;26.20;87.70
12504;DHT22;6316;48.118;-1.690;2022-07-03T10:13:02;26.10;87.70
12504;DHT22;6316;48.118;-1.690;2022-07-03T10:15:29;26.10;87.80
12504;DHT22;6316;48.118;-1.690;2022-07-03T10:17:56;26.10;87.80
12504;DHT22;6316;48.118;-1.690;2022-07-03T10:20:36;26.20;87.70
12504;DHT22;6316;48.118;-1.690;2022-07-03T10:23:03;26.30;87.60
12504;DHT22;6316;48.118;-1.690;2022-07-03T10:25:33;26.20;87.40
12504;DHT22;6316;48.118;-1.690;2022-07-03T10:27:59;26.10;87.30
12504;DHT22;6316;48.118;-1.690;2022-07-03T10:30:25;26.00;88.00
12504;DHT22;6316;48.118;-1.690;2022-07-03T10:32:53;26.00;87.30
12504;DHT22;6316;48.118;-1.690;2022-07-03T10:35:43;25.90;87.20
12504;DHT22;6316;48.118;-1.690;2022-07-03T10:38:27;25.90;87.30
12504;DHT22;6316;48.118;-1.690;2022-07-03T10:41:23;25.80;87.10
12504;DHT22;6316;48.118;-1.690;2022-07-03T10:44:09;25.60;87.10
12504;DHT22;6316;48.118;-1.690;2022-07-03T10:46:56;25.50;87.00
12504;DHT22;6316;48.118;-1.690;2022-07-03T10:49:22;25.40;87.30
12504;DHT22;6316;48.118;-1.690;2022-07-03T10:54:31;25.20;87.00
12504;DHT22;6316;48.118;-1.690;2022-07-03T11:07:25;25.00;86.80
12504;DHT22;6316;48.118;-1.690;2022-07-03T11:25:54;24.90;86.50
12504;DHT22;6316;48.118;-1.690;2022-07-03T11:41:26;25.40;86.00
12504;DHT22;6316;48.118;-1.690;2022-07-03T11:43:57;25.30;85.70
12504;DHT22;6316;48.118;-1.690;2022-07-03T11:46:34;25.30;85.70
12504;DHT22;6316;48.118;-1.690;2022-07-03T11:49:06;25.20;85.70
12504;DHT22;6316;48.118;-1.690;2022-07-03T11:51:32;25.10;86.50
12504;DHT22;6316;48.118;-1.690;2022-07-03T11:53:58;25.00;85.80
12504;DHT22;6316;48.118;-1.690;2022-07-03T11:56:24;25.00;85.90
12504;DHT22;6316;48.118;-1.690;2022-07-03T11:58:55;25.00;85.80
12504;DHT22;6316;48.118;-1.690;2022-07-03T12:06:20;24.80;85.70
12504;DHT22;6316;48.118;-1.690;2022-07-03T12:08:46;24.70;85.80
12504;DHT22;6316;48.118;-1.690;2022-07-03T12:11:17;24.70;86.00
12504;DHT22;6316;48.118;-1.690;2022-07-03T12:13:43;24.70;85.90
12504;DHT22;6316;48.118;-1.690;2022-07-03T12:16:14;24.70;85.80
12504;DHT22;6316;48.118;-1.690;2022-07-03T12:21:16;24.70;85.60
12504;DHT22;6316;48.118;-1.690;2022-07-03T12:23:54;24.60;85.60
12504;DHT22;6316;48.118;-1.690;2022-07-03T12:26:33;24.40;85.60
12504;DHT22;6316;48.118;-1.690;2022-07-03T12:29:12;24.30;85.80
12504;DHT22;6316;48.118;-1.690;2022-07-03T12:31:39;24.10;85.80
12504;DHT22;6316;48.118;-1.690;2022-07-03T12:34:06;24.00;85.90
12504;DHT22;6316;48.118;-1.690;2022-07-03T12:36:32;23.90;86.00
12504;DHT22;6316;48.118;-1.690;2022-07-03T12:38:58;23.90;86.10
12504;DHT22;6316;48.118;-1.690;2022-07-03T12:41:25;23.80;86.10
12504;DHT22;6316;48.118;-1.690;2022-07-03T12:43:52;23.70;86.10
12504;DHT22;6316;48.118;-1.690;2022-07-03T12:48:54;23.70;86.10
12504;DHT22;6316;48.118;-1.690;2022-07-03T12:56:34;23.90;86.10
12504;DHT22;6316;48.118;-1.690;2022-07-03T12:59:00;23.90;85.90
12504;DHT22;6316;48.118;-1.690;2022-07-03T13:01:45;23.90;85.80
12504;DHT22;6316;48.118;-1.690;2022-07-03T13:04:12;23.90;85.80
12504;DHT22;6316;48.118;-1.690;2022-07-03T13:06:41;23.90;85.80
12504;DHT22;6316;48.118;-1.690;2022-07-03T13:09:13;23.90;85.80
12504;DHT22;6316;48.118;-1.690;2022-07-03T13:11:41;23.90;85.70
12504;DHT22;6316;48.118;-1.690;2022-07-03T13:14:13;24.00;85.70
12504;DHT22;6316;48.118;-1.690;2022-07-03T13:16:45;24.10;85.80
12504;DHT22;6316;48.118;-1.690;2022-07-03T13:19:13;24.00;85.60
12504;DHT22;6316;48.118;-1.690;2022-07-03T13:21:39;24.00;85.60
12504;DHT22;6316;48.118;-1.690;2022-07-03T13:24:06;24.00;85.50
12504;DHT22;6316;48.118;-1.690;2022-07-03T13:26:32;24.00;85.50
12504;DHT22;6316;48.118;-1.690;2022-07-03T13:28:58;24.00;85.60
12504;DHT22;6316;48.118;-1.690;2022-07-03T13:31:24;23.90;85.60
12504;DHT22;6316;48.118;-1.690;2022-07-03T13:33:49;24.00;85.70
12504;DHT22;6316;48.118;-1.690;2022-07-03T13:36:15;24.10;85.70
12504;DHT22;6316;48.118;-1.690;2022-07-03T13:38:43;24.20;85.70
12504;DHT22;6316;48.118;-1.690;2022-07-03T13:41:09;24.20;85.50
12504;DHT22;6316;48.118;-1.690;2022-07-03T13:43:35;24.30;85.50
12504;DHT22;6316;48.118;-1.690;2022-07-03T13:46:00;24.40;85.40
12504;DHT22;6316;48.118;-1.690;2022-07-03T13:48:26;24.40;85.30
12504;DHT22;6316;48.118;-1.690;2022-07-03T13:50:52;24.50;85.20
12504;DHT22;6316;48.118;-1.690;2022-07-03T13:53:17;24.50;85.20
12504;DHT22;6316;48.118;-1.690;2022-07-03T13:55:43;24.50;85.20
12504;DHT22;6316;48.118;-1.690;2022-07-03T13:58:09;24.40;85.20
12504;DHT22;6316;48.118;-1.690;2022-07-03T14:00:34;24.40;85.20
12504;DHT22;6316;48.118;-1.690;2022-07-03T14:03:01;24.40;85.30
12504;DHT22;6316;48.118;-1.690;2022-07-03T14:05:27;24.50;85.30
12504;DHT22;6316;48.118;-1.690;2022-07-03T14:07:54;24.50;85.20
12504;DHT22;6316;48.118;-1.690;2022-07-03T14:10:20;24.60;85.20
12504;DHT22;6316;48.118;-1.690;2022-07-03T14:12:47;24.60;85.00
12504;DHT22;6316;48.118;-1.690;2022-07-03T14:15:13;24.60;85.10
12504;DHT22;6316;48.118;-1.690;2022-07-03T14:17:40;24.50;85.20
12504;DHT22;6316;48.118;-1.690;2022-07-03T14:20:06;24.50;85.20
12504;DHT22;6316;48.118;-1.690;2022-07-03T14:22:31;24.50;85.20
12504;DHT22;6316;48.118;-1.690;2022-07-03T14:24:57;24.50;85.30
12504;DHT22;6316;48.118;-1.690;2022-07-03T14:27:23;24.40;85.30
12504;DHT22;6316;48.118;-1.690;2022-07-03T14:30:07;24.40;85.50
12504;DHT22;6316;48.118;-1.690;2022-07-03T14:32:52;24.30;85.60
12504;DHT22;6316;48.118;-1.690;2022-07-03T14:35:17;24.30;85.70
12504;DHT22;6316;48.118;-1.690;2022-07-03T14:37:43;24.30;85.80
12504;DHT22;6316;48.118;-1.690;2022-07-03T14:40:09;24.30;85.80
12504;DHT22;6316;48.118;-1.690;2022-07-03T14:42:35;24.40;85.80
12504;DHT22;6316;48.118;-1.690;2022-07-03T14:45:01;24.40;85.80
12504;DHT22;6316;48.118;-1.690;2022-07-03T14:47:26;24.40;85.80
12504;DHT22;6316;48.118;-1.690;2022-07-03T14:49:52;24.40;85.80
12504;DHT22;6316;48.118;-1.690;2022-07-03T14:52:18;24.30;85.70
12504;DHT22;6316;48.118;-1.690;2022-07-03T14:54:43;24.20;85.80
12504;DHT22;6316;48.118;-1.690;2022-07-03T14:57:18;24.10;86.00
12504;DHT22;6316;48.118;-1.690;2022-07-03T14:59:51;24.00;86.10
12504;DHT22;6316;48.118;-1.690;2022-07-03T15:02:22;24.00;86.30
12504;DHT22;6316;48.118;-1.690;2022-07-03T15:05:08;24.00;86.20
12504;DHT22;6316;48.118;-1.690;2022-07-03T15:10:32;23.90;86.30
12504;DHT22;6316;48.118;-1.690;2022-07-03T15:13:03;23.80;86.30
12504;DHT22;6316;48.118;-1.690;2022-07-03T15:15:29;23.80;86.30
12504;DHT22;6316;48.118;-1.690;2022-07-03T15:17:57;23.80;86.40
12504;DHT22;6316;48.118;-1.690;2022-07-03T15:20:26;23.80;86.50
12504;DHT22;6316;48.118;-1.690;2022-07-03T15:22:55;23.70;86.50
12504;DHT22;6316;48.118;-1.690;2022-07-03T15:25:21;23.70;86.50
12504;DHT22;6316;48.118;-1.690;2022-07-03T15:27:52;23.70;86.60
12504;DHT22;6316;48.118;-1.690;2022-07-03T15:30:18;23.70;86.60
12504;DHT22;6316;48.118;-1.690;2022-07-03T15:32:46;23.70;86.60
12504;DHT22;6316;48.118;-1.690;2022-07-03T15:35:13;23.80;86.50
12504;DHT22;6316;48.118;-1.690;2022-07-03T15:40:50;23.90;86.50
12504;DHT22;6316;48.118;-1.690;2022-07-03T15:43:46;23.90;86.40
12504;DHT22;6316;48.118;-1.690;2022-07-03T15:49:28;23.80;86.30
12504;DHT22;6316;48.118;-1.690;2022-07-03T15:52:21;23.70;86.40
12504;DHT22;6316;48.118;-1.690;2022-07-03T15:54:57;23.50;86.50
12504;DHT22;6316;48.118;-1.690;2022-07-03T16:00:12;23.30;86.70
12504;DHT22;6316;48.118;-1.690;2022-07-03T16:05:30;23.10;87.10
12504;DHT22;6316;48.118;-1.690;2022-07-03T16:07:59;23.00;87.20
12504;DHT22;6316;48.118;-1.690;2022-07-03T16:10:25;23.00;87.30
12504;DHT22;6316;48.118;-1.690;2022-07-03T16:12:52;23.00;87.40
12504;DHT22;6316;48.118;-1.690;2022-07-03T16:15:20;23.00;87.40
12504;DHT22;6316;48.118;-1.690;2022-07-03T16:17:46;23.00;87.60
12504;DHT22;6316;48.118;-1.690;2022-07-03T16:20:12;22.90;87.50
12504;DHT22;6316;48.118;-1.690;2022-07-03T16:22:39;22.80;87.60
12504;DHT22;6316;48.118;-1.690;2022-07-03T16:25:07;22.80;87.60
12504;DHT22;6316;48.118;-1.690;2022-07-03T16:27:34;22.80;87.70
12504;DHT22;6316;48.118;-1.690;2022-07-03T16:30:00;22.80;87.60
12504;DHT22;6316;48.118;-1.690;2022-07-03T16:32:38;22.80;87.70
12504;DHT22;6316;48.118;-1.690;2022-07-03T16:35:11;22.80;87.80
12504;DHT22;6316;48.118;-1.690;2022-07-03T16:37:58;22.80;87.80
12504;DHT22;6316;48.118;-1.690;2022-07-03T16:40:29;22.70;87.80
12504;DHT22;6316;48.118;-1.690;2022-07-03T16:42:57;22.70;87.80
12504;DHT22;6316;48.118;-1.690;2022-07-03T16:45:27;22.70;87.80
12504;DHT22;6316;48.118;-1.690;2022-07-03T16:48:00;22.70;87.70
12504;DHT22;6316;48.118;-1.690;2022-07-03T16:50:30;22.80;87.80
12504;DHT22;6316;48.118;-1.690;2022-07-03T16:52:55;22.70;87.80
12504;DHT22;6316;48.118;-1.690;2022-07-03T16:55:22;22.70;87.80
12504;DHT22;6316;48.118;-1.690;2022-07-03T17:00:17;22.60;87.80
12504;DHT22;6316;48.118;-1.690;2022-07-03T17:02:45;22.50;87.90
12504;DHT22;6316;48.118;-1.690;2022-07-03T17:05:13;22.50;88.10
12504;DHT22;6316;48.118;-1.690;2022-07-03T17:07:43;22.40;88.10
12504;DHT22;6316;48.118;-1.690;2022-07-03T17:10:10;22.30;88.20
12504;DHT22;6316;48.118;-1.690;2022-07-03T17:12:37;22.20;88.30
12504;DHT22;6316;48.118;-1.690;2022-07-03T17:15:05;22.20;88.40
12504;DHT22;6316;48.118;-1.690;2022-07-03T17:17:32;22.20;88.60
12504;DHT22;6316;48.118;-1.690;2022-07-03T17:20:21;22.10;88.60
12504;DHT22;6316;48.118;-1.690;2022-07-03T17:22:48;22.10;88.70
12504;DHT22;6316;48.118;-1.690;2022-07-03T17:25:22;22.00;88.80
12504;DHT22;6316;48.118;-1.690;2022-07-03T17:27:52;22.00;88.90
12504;DHT22;6316;48.118;-1.690;2022-07-03T17:30:18;21.90;88.90